Time;durP1;ratioP1;P1;durP2;ratioP2;P2;SDS_P1;SDS_P2;PMS_P1;PMS_P2;Temp;Humidity;BMP_temperature;BMP_pressure;BME280_temperature;BME280_humidity;BME280_pressure;Samples;Min_cycle;Max_cycle;Signal;HPM_P1;HPM_P2
2022/10/17 00:01:37;;;;;;;14.18;6.85;;;12.60;99.90;;;;;;5051623;28;20036;-72
2022/10/17 00:04:03;;;;;;;16.88;5.95;;;12.60;99.90;;;;;;5043742;28;20037;-72
2022/10/17 00:06:29;;;;;;;12.25;6.00;;;12.60;99.90;;;;;;5044524;28;20025;-72
2022/10/17 00:08:54;;;;;;;14.40;6.60;;;12.60;99.90;;;;;;5044174;28;20017;-73
2022/10/17 00:11:22;;;;;;;15.07;6.68;;;12.60;99.90;;;;;;5044259;28;20029;-73
2022/10/17 00:13:50;;;;;;;14.95;6.13;;;12.60;99.90;;;;;;5044117;28;20029;-73
2022/10/17 00:16:31;;;;;;;17.38;6.53;;;12.60;99.90;;;;;;5044087;28;20021;-73
2022/10/17 00:18:57;;;;;;;19.63;6.70;;;12.60;99.90;;;;;;5044085;28;20033;-73
2022/10/17 00:21:23;;;;;;;12.35;5.78;;;12.70;99.90;;;;;;5043103;28;20029;-72
2022/10/17 00:23:51;;;;;;;16.42;6.45;;;12.60;99.90;;;;;;5044307;28;20033;-73
2022/10/17 00:26:16;;;;;;;14.40;6.03;;;12.60;99.90;;;;;;5044083;28;20466;-73
2022/10/17 00:28:46;;;;;;;17.15;5.90;;;12.70;99.90;;;;;;5044426;28;20025;-75
2022/10/17 00:31:13;;;;;;;12.90;6.20;;;12.70;99.90;;;;;;5043681;28;20025;-73
2022/10/17 00:33:38;;;;;;;13.80;5.78;;;12.70;99.90;;;;;;5042510;28;20013;-72
2022/10/17 00:36:12;;;;;;;20.45;5.93;;;12.70;99.90;;;;;;5043750;28;20024;-74
2022/10/17 00:38:39;;;;;;;14.73;5.15;;;12.70;99.90;;;;;;5043433;28;20020;-73
2022/10/17 00:41:06;;;;;;;13.05;5.85;;;12.70;99.90;;;;;;5034130;28;20029;-72
2022/10/17 00:43:50;;;;;;;18.70;5.35;;;12.70;99.90;;;;;;5025804;28;20034;-73
2022/10/17 00:46:17;;;;;;;13.05;5.15;;;12.70;99.90;;;;;;5042785;28;20892;-73
2022/10/17 00:48:43;;;;;;;17.30;5.70;;;12.70;99.90;;;;;;5044056;28;20489;-73
2022/10/17 00:51:09;;;;;;;11.57;5.93;;;12.70;99.90;;;;;;5049526;28;20021;-72
2022/10/17 00:53:38;;;;;;;14.43;5.43;;;12.70;99.90;;;;;;5043401;28;20026;-71
2022/10/17 00:56:04;;;;;;;16.17;5.80;;;12.70;99.90;;;;;;5043266;28;20028;-72
2022/10/17 00:58:29;;;;;;;10.50;5.30;;;12.70;99.90;;;;;;5042261;28;20029;-72
2022/10/17 01:00:55;;;;;;;18.13;5.53;;;12.70;99.90;;;;;;5043173;28;20026;-72
2022/10/17 01:03:21;;;;;;;13.10;5.07;;;12.70;99.90;;;;;;5042502;28;20115;-73
2022/10/17 01:05:47;;;;;;;10.40;5.00;;;12.70;99.90;;;;;;5043455;28;20025;-72
2022/10/17 01:08:13;;;;;;;14.93;5.72;;;12.70;99.90;;;;;;5043126;28;20080;-74
2022/10/17 01:11:06;;;;;;;9.43;4.85;;;12.60;99.90;;;;;;5042839;28;20029;-72
2022/10/17 01:13:31;;;;;;;10.15;5.07;;;12.60;99.90;;;;;;5043239;28;20029;-73
2022/10/17 01:16:06;;;;;;;13.93;5.35;;;12.60;99.90;;;;;;5043468;28;20026;-72
2022/10/17 01:18:42;;;;;;;12.93;4.70;;;12.60;99.90;;;;;;5042786;28;20075;-73
2022/10/17 01:21:31;;;;;;;12.80;5.10;;;12.60;99.90;;;;;;5042517;28;20025;-73
2022/10/17 01:24:13;;;;;;;10.27;5.25;;;12.60;99.90;;;;;;5042836;28;20025;-73
2022/10/17 01:27:03;;;;;;;11.77;4.55;;;12.60;99.90;;;;;;5043180;28;20081;-72
2022/10/17 01:29:29;;;;;;;14.35;4.68;;;12.70;99.90;;;;;;5032846;28;20027;-73
2022/10/17 01:32:38;;;;;;;14.25;5.10;;;12.70;99.90;;;;;;5042003;28;20405;-73
2022/10/17 01:35:13;;;;;;;12.68;4.07;;;12.70;99.90;;;;;;4999192;28;20810;-73
2022/10/17 01:37:41;;;;;;;11.13;4.28;;;12.70;99.90;;;;;;5042752;28;20060;-73
2022/10/17 01:40:21;;;;;;;9.70;4.57;;;12.80;99.90;;;;;;5042354;28;20029;-72
2022/10/17 01:43:02;;;;;;;14.95;5.18;;;12.80;99.90;;;;;;5041816;28;20069;-73
2022/10/17 01:45:53;;;;;;;12.38;3.78;;;12.80;99.90;;;;;;5042763;28;20170;-73
2022/10/17 01:48:25;;;;;;;13.45;4.40;;;12.80;99.90;;;;;;5042022;28;20240;-74
2022/10/17 01:50:55;;;;;;;16.75;4.30;;;12.80;99.90;;;;;;5042548;28;20037;-74
2022/10/17 01:53:28;;;;;;;15.52;4.60;;;12.80;99.90;;;;;;5042004;28;20088;-72
2022/10/17 01:55:58;;;;;;;7.00;4.15;;;12.80;99.90;;;;;;5041510;28;20567;-72
2022/10/17 01:58:30;;;;;;;15.50;4.53;;;12.80;99.90;;;;;;5041996;28;20040;-71
2022/10/17 02:00:59;;;;;;;9.77;4.45;;;12.80;99.90;;;;;;5041843;28;20022;-73
2022/10/17 02:03:27;;;;;;;11.68;5.05;;;12.90;99.90;;;;;;5042015;28;20461;-73
2022/10/17 02:05:54;;;;;;;12.88;4.32;;;12.90;99.90;;;;;;5041809;28;20028;-72
2022/10/17 02:08:49;;;;;;;11.70;5.47;;;12.90;99.90;;;;;;5042114;28;20025;-74
2022/10/17 02:11:21;;;;;;;8.65;4.32;;;12.90;99.90;;;;;;5026681;28;20148;-75
2022/10/17 02:13:52;;;;;;;11.15;4.28;;;12.90;99.90;;;;;;5041580;28;20022;-74
2022/10/17 02:16:49;;;;;;;12.45;4.75;;;12.90;99.90;;;;;;5041444;28;20033;-74
2022/10/17 02:19:36;;;;;;;9.02;4.43;;;12.90;99.90;;;;;;5040796;28;20029;-73
2022/10/17 02:22:23;;;;;;;9.05;5.03;;;12.90;99.90;;;;;;5041406;28;20029;-73
2022/10/17 02:25:08;;;;;;;7.07;4.28;;;12.90;99.90;;;;;;5041614;28;20037;-72
2022/10/17 02:27:40;;;;;;;13.73;4.43;;;12.90;99.90;;;;;;5040116;28;20029;-73
2022/10/17 02:30:11;;;;;;;15.85;4.40;;;12.90;99.90;;;;;;5023148;28;20037;-74
2022/10/17 02:32:50;;;;;;;6.47;3.72;;;12.90;99.90;;;;;;5041702;28;20025;-73
2022/10/17 02:35:19;;;;;;;12.63;4.18;;;12.90;99.90;;;;;;5041233;28;20021;-72
2022/10/17 02:37:46;;;;;;;11.77;4.53;;;12.90;99.90;;;;;;5041091;28;20592;-72
2022/10/17 02:40:15;;;;;;;10.52;4.10;;;12.90;99.90;;;;;;5041961;28;20025;-73
2022/10/17 02:42:44;;;;;;;9.73;4.57;;;12.90;99.90;;;;;;5041425;28;20128;-73
2022/10/17 02:45:11;;;;;;;13.68;4.72;;;12.90;99.90;;;;;;5040756;28;20033;-72
2022/10/17 02:47:42;;;;;;;9.55;4.40;;;12.90;99.90;;;;;;5041472;28;20128;-72
2022/10/17 02:50:08;;;;;;;18.58;4.47;;;12.90;99.90;;;;;;5041392;28;20018;-73
2022/10/17 02:52:57;;;;;;;12.30;4.25;;;12.90;99.90;;;;;;5041390;28;20033;-72
2022/10/17 02:55:26;;;;;;;9.23;4.50;;;12.80;99.90;;;;;;5040732;28;20021;-74
2022/10/17 02:58:06;;;;;;;8.32;4.55;;;12.80;99.90;;;;;;5040223;28;20025;-73
2022/10/17 03:00:33;;;;;;;8.75;4.55;;;12.70;99.90;;;;;;5041581;28;20509;-72
2022/10/17 03:02:59;;;;;;;8.57;4.70;;;12.70;99.90;;;;;;5040774;28;20065;-73
2022/10/17 03:05:27;;;;;;;15.43;4.40;;;12.70;99.90;;;;;;5040330;28;20017;-73
2022/10/17 03:07:54;;;;;;;8.13;4.80;;;12.70;99.90;;;;;;5040714;28;20049;-75
2022/10/17 03:10:20;;;;;;;9.70;4.47;;;12.60;99.90;;;;;;5041235;28;20017;-73
2022/10/17 03:12:46;;;;;;;6.88;4.10;;;12.60;99.90;;;;;;5041271;28;20029;-74
2022/10/17 03:15:12;;;;;;;7.75;3.90;;;12.60;99.90;;;;;;5041498;28;20025;-74
2022/10/17 03:17:38;;;;;;;7.53;4.07;;;12.60;99.90;;;;;;5041180;28;20018;-73
2022/10/17 03:20:05;;;;;;;13.35;4.45;;;12.60;99.90;;;;;;5040485;28;20517;-72
2022/10/17 03:22:31;;;;;;;8.07;4.20;;;12.60;99.90;;;;;;5040671;28;20081;-73
2022/10/17 03:24:57;;;;;;;7.85;4.80;;;12.50;99.90;;;;;;5041164;28;20030;-73
2022/10/17 03:27:23;;;;;;;9.40;4.28;;;12.50;99.90;;;;;;5040519;28;20017;-73
2022/10/17 03:29:49;;;;;;;10.77;4.18;;;12.50;99.90;;;;;;5041062;28;20022;-72
2022/10/17 03:32:15;;;;;;;8.98;3.70;;;12.50;99.90;;;;;;5022671;28;20103;-73
2022/10/17 03:34:41;;;;;;;9.63;4.95;;;12.50;99.90;;;;;;5040563;28;20026;-73
2022/10/17 03:37:06;;;;;;;7.57;4.13;;;12.50;99.90;;;;;;5041172;28;20033;-74
2022/10/17 03:39:32;;;;;;;10.00;4.93;;;12.50;99.90;;;;;;5031144;28;20068;-73
2022/10/17 03:41:58;;;;;;;6.82;4.28;;;12.60;99.90;;;;;;5041274;28;20056;-74
2022/10/17 03:44:23;;;;;;;11.50;5.03;;;12.60;99.90;;;;;;5031258;28;20044;-73
2022/10/17 03:46:49;;;;;;;10.88;5.28;;;12.60;99.90;;;;;;5022368;28;20037;-74
2022/10/17 03:49:15;;;;;;;7.90;4.78;;;12.60;99.90;;;;;;5041094;28;20088;-74
2022/10/17 03:51:40;;;;;;;10.10;4.35;;;12.60;99.90;;;;;;5041207;28;20110;-72
2022/10/17 03:54:06;;;;;;;11.52;4.75;;;12.60;99.90;;;;;;5040642;28;20036;-73
2022/10/17 03:56:31;;;;;;;8.52;4.72;;;12.60;99.90;;;;;;5040568;28;20028;-73
2022/10/17 03:58:57;;;;;;;9.63;4.65;;;12.60;99.90;;;;;;5041313;28;20017;-74
2022/10/17 04:01:23;;;;;;;9.00;4.78;;;12.60;99.90;;;;;;5030913;28;20022;-74
2022/10/17 04:03:54;;;;;;;7.80;4.85;;;12.60;99.90;;;;;;5047030;28;20037;-74
2022/10/17 04:06:21;;;;;;;7.63;4.53;;;12.60;99.90;;;;;;5041097;28;20159;-76
2022/10/17 04:08:47;;;;;;;8.88;4.95;;;12.60;99.90;;;;;;5040512;28;20026;-73
2022/10/17 04:11:16;;;;;;;8.68;5.65;;;12.60;99.90;;;;;;5044765;28;20029;-73
2022/10/17 04:13:42;;;;;;;8.02;4.68;;;12.60;99.90;;;;;;5044523;28;20104;-74
2022/10/17 04:16:12;;;;;;;10.15;4.97;;;12.60;99.90;;;;;;5043322;28;20033;-73
2022/10/17 04:18:38;;;;;;;9.13;4.60;;;12.60;99.90;;;;;;5043869;28;20033;-73
2022/10/17 04:21:04;;;;;;;9.18;4.85;;;12.60;99.90;;;;;;5043962;28;20025;-74
2022/10/17 04:23:30;;;;;;;12.23;5.07;;;12.60;99.90;;;;;;5043325;28;20033;-75
2022/10/17 04:25:57;;;;;;;8.95;5.05;;;12.60;99.90;;;;;;5044475;28;20026;-73
2022/10/17 04:28:25;;;;;;;8.32;4.80;;;12.60;99.90;;;;;;5043656;28;20100;-74
2022/10/17 04:31:05;;;;;;;8.85;5.38;;;12.60;99.90;;;;;;5043427;28;20033;-73
2022/10/17 04:33:32;;;;;;;10.60;5.47;;;12.60;99.90;;;;;;5043877;28;20037;-72
2022/10/17 04:36:02;;;;;;;8.75;5.35;;;12.60;99.90;;;;;;5043455;28;20021;-72
2022/10/17 04:38:28;;;;;;;7.80;5.07;;;12.60;99.90;;;;;;5017868;28;20017;-73
2022/10/17 04:40:56;;;;;;;10.02;5.75;;;12.60;99.90;;;;;;5043851;28;20037;-73
2022/10/17 04:43:21;;;;;;;11.38;5.60;;;12.60;99.90;;;;;;5042479;28;20048;-75
2022/10/17 04:45:47;;;;;;;14.82;5.45;;;12.60;99.90;;;;;;5043253;28;20460;-73
2022/10/17 04:48:13;;;;;;;15.77;6.22;;;12.50;99.90;;;;;;5043379;28;20025;-74
2022/10/17 04:50:38;;;;;;;16.85;6.28;;;12.50;99.90;;;;;;5043302;28;20030;-73
2022/10/17 04:53:04;;;;;;;10.15;5.95;;;12.50;99.90;;;;;;5043855;28;20041;-72
2022/10/17 04:55:29;;;;;;;11.18;5.40;;;12.50;99.90;;;;;;5043688;28;20036;-73
2022/10/17 04:57:55;;;;;;;8.00;4.90;;;12.50;99.90;;;;;;5023045;28;20029;-73
2022/10/17 05:00:24;;;;;;;11.38;5.68;;;12.50;99.90;;;;;;5041862;28;20028;-73
2022/10/17 05:02:50;;;;;;;10.27;5.68;;;12.50;99.90;;;;;;5042784;28;20037;-74
2022/10/17 05:05:16;;;;;;;9.75;5.78;;;12.50;99.90;;;;;;5024841;28;20037;-73
2022/10/17 05:07:42;;;;;;;11.48;5.35;;;12.50;99.90;;;;;;5042590;28;20033;-74
2022/10/17 05:10:07;;;;;;;12.45;5.70;;;12.50;99.90;;;;;;5043194;28;20017;-73
2022/10/17 05:12:33;;;;;;;10.48;6.20;;;12.50;99.90;;;;;;5049583;28;20043;-73
2022/10/17 05:14:59;;;;;;;12.60;5.85;;;12.40;99.90;;;;;;5041714;28;20025;-72
2022/10/17 05:17:24;;;;;;;17.27;6.78;;;12.50;99.90;;;;;;5043018;28;20017;-73
2022/10/17 05:19:50;;;;;;;14.13;6.75;;;12.50;99.90;;;;;;5041795;28;20017;-75
2022/10/17 05:22:15;;;;;;;9.05;5.78;;;12.40;99.90;;;;;;5042130;28;20033;-74
2022/10/17 05:24:41;;;;;;;11.40;7.28;;;12.40;99.90;;;;;;5040323;28;20095;-75
2022/10/17 05:27:07;;;;;;;11.85;6.35;;;12.40;99.90;;;;;;5043158;28;20048;-73
2022/10/17 05:29:34;;;;;;;14.38;7.20;;;12.40;99.90;;;;;;5024801;28;20496;-75
2022/10/17 05:31:59;;;;;;;14.45;6.80;;;12.40;99.90;;;;;;5040356;28;20482;-74
2022/10/17 05:34:25;;;;;;;10.90;7.03;;;12.40;99.90;;;;;;5040475;28;20029;-76
2022/10/17 05:36:51;;;;;;;14.80;7.00;;;12.40;99.90;;;;;;5024959;28;20033;-77
2022/10/17 05:39:18;;;;;;;12.55;7.60;;;12.40;99.90;;;;;;5033086;28;20028;-76
2022/10/17 05:41:46;;;;;;;16.23;7.30;;;12.40;99.90;;;;;;5039339;28;20018;-76
2022/10/17 05:44:12;;;;;;;17.42;8.30;;;12.40;99.90;;;;;;5037075;28;20535;-75
2022/10/17 05:46:38;;;;;;;12.93;8.25;;;12.40;99.90;;;;;;5045619;28;20068;-76
2022/10/17 05:49:04;;;;;;;14.32;7.75;;;12.40;99.90;;;;;;5033627;28;20039;-76
2022/10/17 05:51:31;;;;;;;14.13;7.53;;;12.40;99.90;;;;;;5038019;28;20049;-75
2022/10/17 05:53:57;;;;;;;15.52;7.13;;;12.40;99.90;;;;;;5036897;28;20022;-75
2022/10/17 05:56:23;;;;;;;14.95;7.63;;;12.40;99.90;;;;;;5048392;28;20033;-77
2022/10/17 05:58:48;;;;;;;13.80;6.43;;;12.40;99.90;;;;;;5040344;28;20056;-78
2022/10/17 06:01:14;;;;;;;10.75;7.45;;;12.40;99.90;;;;;;5024363;28;20056;-75
2022/10/17 06:03:40;;;;;;;11.15;6.68;;;12.40;99.90;;;;;;5038213;28;20595;-76
2022/10/17 06:06:09;;;;;;;15.05;7.68;;;12.40;99.90;;;;;;5041123;28;20025;-77
2022/10/17 06:08:35;;;;;;;13.02;7.18;;;12.30;99.90;;;;;;5022828;28;20045;-76
2022/10/17 06:11:01;;;;;;;11.20;6.65;;;12.30;99.90;;;;;;5040980;28;20044;-78
2022/10/17 06:13:27;;;;;;;12.38;6.60;;;12.30;99.90;;;;;;5040495;28;20030;-76
2022/10/17 06:15:53;;;;;;;15.40;7.30;;;12.30;99.90;;;;;;5040948;28;20021;-76
2022/10/17 06:18:19;;;;;;;11.45;6.68;;;12.40;99.90;;;;;;5023394;28;20042;-75
2022/10/17 06:20:45;;;;;;;11.90;7.35;;;12.40;99.90;;;;;;5036371;28;20493;-75
2022/10/17 06:23:11;;;;;;;13.95;7.18;;;12.40;99.90;;;;;;5048726;28;20064;-77
2022/10/17 06:25:36;;;;;;;14.45;6.43;;;12.40;99.90;;;;;;5046174;28;20026;-75
2022/10/17 06:28:03;;;;;;;14.20;7.40;;;12.40;99.90;;;;;;5041075;28;20061;-77
2022/10/17 06:30:28;;;;;;;13.30;7.30;;;12.40;99.90;;;;;;5023115;28;20028;-77
2022/10/17 06:32:54;;;;;;;15.30;7.68;;;12.50;99.90;;;;;;5040014;28;20029;-76
2022/10/17 06:35:20;;;;;;;11.05;6.57;;;12.50;99.90;;;;;;5041506;28;20420;-78
2022/10/17 06:37:46;;;;;;;14.15;6.80;;;12.60;99.90;;;;;;5041862;28;20018;-77
2022/10/17 06:40:13;;;;;;;12.27;6.80;;;12.60;99.90;;;;;;5023750;28;20401;-75
2022/10/17 06:42:40;;;;;;;12.27;6.60;;;12.60;99.90;;;;;;5040174;28;20031;-74
2022/10/17 06:45:07;;;;;;;18.55;6.30;;;12.70;99.90;;;;;;5046696;28;20500;-77
2022/10/17 06:47:33;;;;;;;10.77;6.45;;;12.70;99.90;;;;;;5040748;28;20120;-76
2022/10/17 06:49:59;;;;;;;12.95;6.38;;;12.80;99.90;;;;;;5020227;28;20029;-75
2022/10/17 06:52:25;;;;;;;12.30;6.15;;;12.80;99.90;;;;;;5023083;28;20090;-75
2022/10/17 06:54:53;;;;;;;11.40;6.85;;;12.80;99.90;;;;;;5041106;28;20029;-77
2022/10/17 06:57:19;;;;;;;8.20;5.97;;;12.90;99.90;;;;;;5029588;28;20026;-76
2022/10/17 06:59:44;;;;;;;13.65;6.68;;;12.90;99.90;;;;;;5038623;28;20042;-76
2022/10/17 07:02:10;;;;;;;15.20;6.57;;;13.00;99.90;;;;;;5021028;28;20026;-76
2022/10/17 07:04:36;;;;;;;13.50;6.43;;;13.00;99.90;;;;;;5022774;28;20040;-75
2022/10/17 07:07:02;;;;;;;15.38;6.93;;;13.10;99.90;;;;;;5041408;28;21074;-77
2022/10/17 07:09:29;;;;;;;13.00;6.70;;;13.30;99.90;;;;;;5046200;28;20021;-77
2022/10/17 07:11:55;;;;;;;15.32;6.75;;;13.50;99.90;;;;;;5039814;28;20068;-76
2022/10/17 07:14:21;;;;;;;11.30;6.20;;;13.70;99.90;;;;;;5023851;28;20032;-78
2022/10/17 07:16:47;;;;;;;12.10;6.35;;;13.60;99.90;;;;;;5022009;28;20017;-76
2022/10/17 07:19:12;;;;;;;13.40;6.38;;;13.80;99.90;;;;;;5041642;28;20022;-76
2022/10/17 07:21:38;;;;;;;14.38;6.75;;;13.80;99.90;;;;;;5040066;28;20034;-76
2022/10/17 07:24:05;;;;;;;10.85;6.90;;;13.80;99.90;;;;;;5040780;28;20072;-76
2022/10/17 07:26:31;;;;;;;9.05;6.25;;;13.90;99.90;;;;;;5041584;28;20030;-76
2022/10/17 07:28:57;;;;;;;10.98;6.72;;;14.00;99.90;;;;;;5041042;28;20093;-76
2022/10/17 07:31:23;;;;;;;13.48;7.03;;;14.00;99.90;;;;;;5022526;28;21660;-76
2022/10/17 07:33:49;;;;;;;12.95;6.88;;;14.20;99.90;;;;;;5041703;28;20033;-77
2022/10/17 07:36:16;;;;;;;11.45;7.38;;;14.30;99.90;;;;;;5040502;28;20014;-77
2022/10/17 07:38:42;;;;;;;12.55;6.93;;;14.50;99.90;;;;;;5023794;28;20721;-87
2022/10/17 07:41:10;;;;;;;12.60;6.40;;;14.60;99.90;;;;;;5023952;28;20033;-77
2022/10/17 07:43:35;;;;;;;12.25;7.15;;;14.60;99.90;;;;;;5042212;28;20862;-76
2022/10/17 07:46:02;;;;;;;10.27;6.35;;;14.60;99.90;;;;;;5026350;28;20090;-76
2022/10/17 07:48:28;;;;;;;13.30;6.53;;;14.60;99.90;;;;;;5027721;28;20056;-76
2022/10/17 07:50:57;;;;;;;12.98;6.63;;;14.60;99.90;;;;;;5045894;28;20030;-78
2022/10/17 07:53:22;;;;;;;15.90;7.43;;;14.70;99.90;;;;;;5045511;28;21191;-76
2022/10/17 07:55:48;;;;;;;19.73;7.30;;;14.70;99.90;;;;;;5043046;28;20108;-76
2022/10/17 07:58:14;;;;;;;20.60;7.85;;;14.80;99.90;;;;;;5043848;28;20022;-77
2022/10/17 08:00:40;;;;;;;13.25;7.25;;;14.80;99.90;;;;;;5044745;28;20021;-79
2022/10/17 08:03:06;;;;;;;11.68;6.65;;;14.90;99.90;;;;;;5044414;28;20041;-76
2022/10/17 08:05:33;;;;;;;12.85;7.22;;;15.10;99.90;;;;;;5034415;28;20021;-77
2022/10/17 08:07:58;;;;;;;12.45;6.30;;;15.20;99.90;;;;;;5041317;28;20029;-79
2022/10/17 08:10:28;;;;;;;11.35;6.10;;;15.30;99.90;;;;;;5043958;28;20032;-79
2022/10/17 08:12:55;;;;;;;13.38;6.18;;;15.40;99.90;;;;;;5020378;28;20069;-78
2022/10/17 08:15:22;;;;;;;14.63;5.80;;;15.50;99.90;;;;;;5043942;28;20033;-80
2022/10/17 08:17:48;;;;;;;24.23;6.35;;;15.60;99.90;;;;;;5022905;28;20079;-79
2022/10/17 08:20:13;;;;;;;10.55;5.78;;;15.60;99.90;;;;;;5021560;28;20034;-76
2022/10/17 08:22:39;;;;;;;10.35;6.15;;;15.70;99.90;;;;;;5040130;28;20114;-80
2022/10/17 08:25:06;;;;;;;16.17;6.00;;;15.70;99.90;;;;;;5039916;28;20111;-76
2022/10/17 08:27:32;;;;;;;14.63;5.50;;;15.70;99.90;;;;;;5036175;28;20039;-77
2022/10/17 08:29:58;;;;;;;15.07;5.93;;;15.80;99.90;;;;;;5015403;28;20037;-78
2022/10/17 08:32:26;;;;;;;13.00;6.00;;;15.90;99.90;;;;;;5022357;28;20022;-75
2022/10/17 08:34:52;;;;;;;12.10;6.10;;;15.90;99.90;;;;;;5015411;28;20017;-78
2022/10/17 08:37:19;;;;;;;10.57;6.15;;;16.00;99.90;;;;;;5041644;28;20025;-76
2022/10/17 08:39:44;;;;;;;10.70;6.40;;;16.00;99.90;;;;;;5033153;28;20096;-77
2022/10/17 08:42:41;;;;;;;13.85;6.65;;;16.00;99.90;;;;;;5025693;28;20056;-76
2022/10/17 08:45:44;;;;;;;10.48;5.88;;;16.00;99.90;;;;;;5035067;28;20037;-78
2022/10/17 08:48:14;;;;;;;15.98;6.75;;;16.00;99.90;;;;;;5038066;28;20060;-84
2022/10/17 08:50:58;;;;;;;10.85;6.13;;;16.00;99.90;;;;;;5023702;28;20029;-77
2022/10/17 08:53:50;;;;;;;11.70;6.05;;;16.20;99.90;;;;;;5024566;28;20506;-81
2022/10/17 08:56:20;;;;;;;12.00;5.70;;;16.40;99.90;;;;;;4999238;28;20079;-80
2022/10/17 08:58:46;;;;;;;13.90;6.22;;;16.50;99.90;;;;;;5049358;28;20022;-78
2022/10/17 09:01:30;;;;;;;13.80;5.78;;;16.60;99.90;;;;;;5042470;28;20105;-76
2022/10/17 09:04:05;;;;;;;;;;;16.70;99.90;;;;;;5043226;28;20048;-79
2022/10/17 09:06:36;;;;;;;13.38;5.80;;;16.80;99.90;;;;;;5049777;28;19968;-79
2022/10/17 09:09:13;;;;;;;10.27;5.72;;;17.00;99.90;;;;;;5043028;28;20038;-76
2022/10/17 09:11:50;;;;;;;15.13;6.13;;;17.10;99.90;;;;;;5039896;28;20140;-73
2022/10/17 09:15:00;;;;;;;10.80;5.43;;;17.20;99.90;;;;;;5040181;28;20064;-78
2022/10/17 09:17:52;;;;;;;13.43;6.15;;;17.30;99.90;;;;;;5042794;28;20108;-78
2022/10/17 09:20:21;;;;;;;9.32;5.95;;;17.30;99.90;;;;;;5048353;28;20108;-76
2022/10/17 09:23:04;;;;;;;9.20;5.35;;;17.30;99.90;;;;;;5024139;28;20036;-80
2022/10/17 09:25:41;;;;;;;9.80;5.20;;;17.40;99.90;;;;;;5042893;28;20088;-81
2022/10/17 09:28:13;;;;;;;10.07;5.32;;;17.40;99.90;;;;;;5041595;28;20590;-75
2022/10/17 09:30:51;;;;;;;10.60;6.13;;;17.40;99.90;;;;;;5038891;28;20029;-75
2022/10/17 09:33:19;;;;;;;11.02;5.45;;;17.40;99.90;;;;;;5037793;28;20037;-77
2022/10/17 09:35:46;;;;;;;10.40;5.85;;;17.40;99.90;;;;;;5040565;28;20466;-78
2022/10/17 09:38:18;;;;;;;10.48;5.57;;;17.50;99.90;;;;;;5041170;28;20025;-77
2022/10/17 09:40:58;;;;;;;15.52;5.85;;;17.50;99.90;;;;;;5021242;28;20772;-81
2022/10/17 09:43:24;;;;;;;14.63;5.97;;;17.60;99.90;;;;;;5016438;28;20041;-77
2022/10/17 09:46:15;;;;;;;9.93;4.85;;;17.70;99.90;;;;;;5041893;28;20069;-76
2022/10/17 09:49:00;;;;;;;15.18;6.00;;;17.70;99.90;;;;;;5040251;28;20044;-75
2022/10/17 09:51:26;;;;;;;;;;;17.80;99.90;;;;;;5039755;28;20041;-79
2022/10/17 09:54:02;;;;;;;10.63;5.60;;;17.80;99.90;;;;;;5040881;28;19916;-76
2022/10/17 09:56:28;;;;;;;9.82;5.63;;;17.90;99.90;;;;;;5040766;28;20048;-77
2022/10/17 09:58:57;;;;;;;12.82;5.13;;;18.00;99.90;;;;;;5038621;28;20029;-77
2022/10/17 10:01:30;;;;;;;9.07;5.63;;;18.00;99.90;;;;;;5039014;28;20037;-78
2022/10/17 10:04:14;;;;;;;15.48;6.00;;;18.10;99.90;;;;;;5021492;28;20051;-76
2022/10/17 10:06:59;;;;;;;7.55;5.35;;;18.10;99.90;;;;;;5045395;28;20038;-76
2022/10/17 10:09:27;;;;;;;12.30;5.55;;;18.20;99.90;;;;;;5019374;28;20041;-75
2022/10/17 10:11:57;;;;;;;9.20;5.80;;;18.20;99.90;;;;;;5033069;28;20430;-78
2022/10/17 10:14:35;;;;;;;14.10;6.53;;;18.20;99.90;;;;;;5016240;28;20033;-78
2022/10/17 10:17:03;;;;;;;13.93;5.45;;;18.20;99.90;;;;;;5035195;28;20105;-79
2022/10/17 10:19:37;;;;;;;11.00;5.47;;;18.20;99.90;;;;;;5038314;28;20033;-76
2022/10/17 10:22:15;;;;;;;16.40;6.07;;;18.10;99.90;;;;;;5040244;28;20033;-77
2022/10/17 10:24:41;;;;;;;11.82;5.93;;;18.10;99.90;;;;;;5022833;28;20116;-77
2022/10/17 10:27:13;;;;;;;10.38;6.05;;;18.10;99.90;;;;;;5021998;28;20025;-77
2022/10/17 10:29:50;;;;;;;15.85;6.30;;;18.10;99.90;;;;;;5021179;28;20025;-77
2022/10/17 10:32:22;;;;;;;12.85;6.00;;;18.10;99.90;;;;;;5038819;28;20029;-77
2022/10/17 10:35:00;;;;;;;13.40;6.30;;;18.10;99.90;;;;;;5041158;28;20021;-77
2022/10/17 10:37:32;;;;;;;10.15;5.70;;;18.10;99.90;;;;;;5045538;28;20025;-79
2022/10/17 10:40:01;;;;;;;13.70;5.80;;;18.20;99.90;;;;;;5040551;28;20030;-78
2022/10/17 10:42:38;;;;;;;8.15;5.60;;;18.20;99.90;;;;;;5040326;28;20040;-77
2022/10/17 10:45:18;;;;;;;9.50;5.63;;;18.20;99.90;;;;;;5021192;28;20590;-77
2022/10/17 10:47:59;;;;;;;16.92;5.82;;;18.20;99.90;;;;;;5040693;28;20034;-77
2022/10/17 10:50:30;;;;;;;10.25;5.82;;;18.20;99.90;;;;;;5045071;28;20124;-78
2022/10/17 10:53:27;;;;;;;10.80;5.70;;;18.20;99.90;;;;;;5037095;28;20045;-77
2022/10/17 10:55:58;;;;;;;10.63;6.13;;;18.20;99.90;;;;;;5039443;28;20030;-79
2022/10/17 10:58:38;;;;;;;13.80;6.38;;;18.20;99.90;;;;;;5021278;28;20022;-75
2022/10/17 11:01:16;;;;;;;12.38;6.00;;;18.20;99.90;;;;;;5040657;28;20048;-78
2022/10/17 11:04:04;;;;;;;11.98;5.97;;;18.20;99.90;;;;;;5022510;28;20054;-78
2022/10/17 11:06:35;;;;;;;15.15;6.68;;;18.20;99.90;;;;;;5040462;28;20021;-77
2022/10/17 11:09:39;;;;;;;17.65;6.03;;;18.20;99.90;;;;;;5040908;28;20018;-77
2022/10/17 11:12:12;;;;;;;13.75;5.80;;;18.20;99.90;;;;;;5041276;28;20033;-79
2022/10/17 11:14:58;;;;;;;9.40;6.07;;;18.10;99.90;;;;;;5041811;28;20417;-79
2022/10/17 11:17:41;;;;;;;16.05;6.40;;;18.20;99.90;;;;;;4990283;28;20033;-78
2022/10/17 11:20:37;;;;;;;11.82;6.68;;;18.20;99.90;;;;;;5036127;28;20091;-75
2022/10/17 11:23:22;;;;;;;10.68;6.95;;;18.10;99.90;;;;;;5044325;28;20033;-77
2022/10/17 11:25:52;;;;;;;11.45;7.00;;;18.00;99.90;;;;;;5026519;28;20022;-80
2022/10/17 11:28:21;;;;;;;22.02;7.80;;;17.90;99.90;;;;;;5027750;28;20025;-76
2022/10/17 11:31:07;;;;;;;17.83;9.15;;;17.80;99.90;;;;;;5037212;28;20029;-75
2022/10/17 11:33:53;;;;;;;13.73;8.98;;;17.70;99.90;;;;;;5039021;28;20033;-75
2022/10/17 11:36:23;;;;;;;19.98;10.32;;;17.60;99.90;;;;;;5037523;28;20021;-77
2022/10/17 11:38:57;;;;;;;23.83;10.05;;;17.50;99.90;;;;;;5024544;28;20072;-76
2022/10/17 11:41:45;;;;;;;17.10;11.05;;;17.50;99.90;;;;;;5043524;28;20041;-74
2022/10/17 11:44:17;;;;;;;19.25;10.63;;;17.40;99.90;;;;;;5041659;28;20295;-73
2022/10/17 11:46:49;;;;;;;17.98;10.63;;;17.40;99.90;;;;;;5044078;28;20049;-73
2022/10/17 11:49:25;;;;;;;24.48;11.57;;;17.30;99.90;;;;;;5026519;28;20025;-75
2022/10/17 11:51:59;;;;;;;23.77;10.52;;;17.30;99.90;;;;;;5044166;28;20033;-77
2022/10/17 11:54:39;;;;;;;18.67;10.77;;;17.20;99.90;;;;;;5041193;28;20018;-74
2022/10/17 11:57:23;;;;;;;18.35;10.38;;;17.30;99.90;;;;;;5042766;28;21165;-75
2022/10/17 12:00:17;;;;;;;31.02;10.75;;;17.30;99.90;;;;;;5040394;28;20124;-74
2022/10/17 12:02:52;;;;;;;21.83;10.50;;;17.30;99.90;;;;;;5040469;28;20029;-74
2022/10/17 12:05:50;;;;;;;23.98;10.90;;;17.30;99.90;;;;;;5039618;28;20035;-73
2022/10/17 12:08:40;;;;;;;23.25;11.02;;;17.30;99.90;;;;;;5034072;28;20092;-71
2022/10/17 12:11:13;;;;;;;23.85;11.95;;;17.30;99.90;;;;;;5051528;28;20563;-71
2022/10/17 12:13:58;;;;;;;25.77;13.38;;;17.20;99.90;;;;;;5034345;28;20140;-73
2022/10/17 12:16:37;;;;;;;25.17;13.68;;;17.20;99.90;;;;;;5034525;28;20092;-75
2022/10/17 12:19:05;;;;;;;32.95;14.50;;;17.10;99.90;;;;;;5045100;28;20125;-72
2022/10/17 12:22:04;;;;;;;27.70;14.02;;;17.10;99.90;;;;;;5037961;28;20493;-74
2022/10/17 12:24:40;;;;;;;25.42;15.32;;;17.00;99.90;;;;;;5028975;28;20049;-73
2022/10/17 12:27:37;;;;;;;26.50;14.40;;;17.00;99.90;;;;;;5037253;28;20021;-74
2022/10/17 12:30:15;;;;;;;22.38;15.00;;;17.00;99.90;;;;;;5037707;28;20088;-73
2022/10/17 12:32:57;;;;;;;32.60;16.88;;;17.00;99.90;;;;;;5040616;28;20576;-73
2022/10/17 12:35:24;;;;;;;28.27;16.73;;;17.00;99.90;;;;;;5039849;28;20394;-74
2022/10/17 12:37:50;;;;;;;29.48;16.77;;;17.00;99.90;;;;;;5041458;28;20017;-71
2022/10/17 12:40:34;;;;;;;44.63;18.75;;;17.10;99.90;;;;;;5040473;28;20035;-75
2022/10/17 12:43:13;;;;;;;35.45;17.58;;;17.10;99.90;;;;;;5041944;28;20121;-72
2022/10/17 12:45:54;;;;;;;26.67;16.63;;;17.10;99.90;;;;;;5042206;28;20187;-72
2022/10/17 12:48:35;;;;;;;27.52;18.15;;;17.10;99.90;;;;;;5042902;28;20147;-71
2022/10/17 12:51:01;;;;;;;26.50;17.55;;;17.10;99.90;;;;;;5041892;28;21085;-71
2022/10/17 12:53:45;;;;;;;27.35;17.40;;;17.00;99.90;;;;;;5040876;28;20108;-71
2022/10/17 12:56:12;;;;;;;24.05;16.40;;;17.00;99.90;;;;;;5042642;28;20063;-71
2022/10/17 12:58:44;;;;;;;32.33;18.33;;;17.00;99.90;;;;;;5043005;28;20076;-72
2022/10/17 13:01:22;;;;;;;29.90;18.70;;;17.00;99.90;;;;;;5036236;28;20482;-72